sensor_id;sensor_type;location;lat;lon;timestamp;pressure;altitude;pressure_sealevel;temperature;humidity
65872;BME280;52653;50.080;21.992;2024-01-30T00:02:16;101117.32;;;-3.75;97.30
65872;BME280;52653;50.080;21.992;2024-01-30T00:04:48;101116.23;;;-3.70;97.56
65872;BME280;52653;50.080;21.992;2024-01-30T00:07:30;101116.86;;;-3.64;97.40
65872;BME280;52653;50.080;21.992;2024-01-30T00:10:07;101113.52;;;-3.59;97.40
65872;BME280;52653;50.080;21.992;2024-01-30T00:12:39;101109.15;;;-3.53;97.50
65872;BME280;52653;50.080;21.992;2024-01-30T00:15:12;101109.05;;;-3.45;97.52
65872;BME280;52653;50.080;21.992;2024-01-30T00:17:49;101108.75;;;-3.37;97.82
65872;BME280;52653;50.080;21.992;2024-01-30T00:20:23;101109.86;;;-3.22;98.46
65872;BME280;52653;50.080;21.992;2024-01-30T00:22:55;101109.95;;;-3.12;97.92
65872;BME280;52653;50.080;21.992;2024-01-30T00:25:27;101101.69;;;-3.06;97.47
65872;BME280;52653;50.080;21.992;2024-01-30T00:28:00;101101.33;;;-3.00;97.26
65872;BME280;52653;50.080;21.992;2024-01-30T00:30:32;101100.07;;;-2.91;97.40
65872;BME280;52653;50.080;21.992;2024-01-30T00:33:05;101100.16;;;-2.83;97.23
65872;BME280;52653;50.080;21.992;2024-01-30T00:35:39;101097.59;;;-2.76;97.12
65872;BME280;52653;50.080;21.992;2024-01-30T00:38:12;101092.48;;;-2.69;96.99
65872;BME280;52653;50.080;21.992;2024-01-30T00:40:46;101093.81;;;-2.60;97.12
65872;BME280;52653;50.080;21.992;2024-01-30T00:43:18;101089.45;;;-2.52;96.94
65872;BME280;52653;50.080;21.992;2024-01-30T00:45:52;101085.77;;;-2.44;96.94
65872;BME280;52653;50.080;21.992;2024-01-30T00:48:25;101083.41;;;-2.36;96.71
65872;BME280;52653;50.080;21.992;2024-01-30T00:50:57;101081.16;;;-2.31;96.20
65872;BME280;52653;50.080;21.992;2024-01-30T00:53:30;101077.66;;;-2.28;96.03
65872;BME280;52653;50.080;21.992;2024-01-30T00:56:02;101075.75;;;-2.21;95.95
65872;BME280;52653;50.080;21.992;2024-01-30T00:58:35;101072.90;;;-2.15;95.79
65872;BME280;52653;50.080;21.992;2024-01-30T01:01:07;101069.37;;;-2.12;95.48
65872;BME280;52653;50.080;21.992;2024-01-30T01:03:40;101069.47;;;-2.08;95.25
65872;BME280;52653;50.080;21.992;2024-01-30T01:06:15;101065.65;;;-2.04;95.25
65872;BME280;52653;50.080;21.992;2024-01-30T01:08:47;101063.95;;;-2.01;94.82
65872;BME280;52653;50.080;21.992;2024-01-30T01:11:25;101058.27;;;-1.97;94.99
65872;BME280;52653;50.080;21.992;2024-01-30T01:13:57;101051.73;;;-1.92;94.78
65872;BME280;52653;50.080;21.992;2024-01-30T01:16:29;101047.01;;;-1.89;94.40
65872;BME280;52653;50.080;21.992;2024-01-30T01:19:05;101045.60;;;-1.87;94.22
65872;BME280;52653;50.080;21.992;2024-01-30T01:21:37;101043.07;;;-1.83;94.06
65872;BME280;52653;50.080;21.992;2024-01-30T01:24:10;101047.25;;;-1.80;93.90
65872;BME280;52653;50.080;21.992;2024-01-30T01:26:43;101049.30;;;-1.76;93.79
65872;BME280;52653;50.080;21.992;2024-01-30T01:29:15;101049.34;;;-1.72;93.73
65872;BME280;52653;50.080;21.992;2024-01-30T01:31:48;101049.20;;;-1.69;93.41
65872;BME280;52653;50.080;21.992;2024-01-30T01:34:20;101049.43;;;-1.64;93.15
65872;BME280;52653;50.080;21.992;2024-01-30T01:36:53;101043.87;;;-1.60;93.01
65872;BME280;52653;50.080;21.992;2024-01-30T01:39:27;101041.27;;;-1.58;92.74
65872;BME280;52653;50.080;21.992;2024-01-30T01:41:59;101042.02;;;-1.57;92.39
65872;BME280;52653;50.080;21.992;2024-01-30T01:44:33;101041.46;;;-1.57;92.15
65872;BME280;52653;50.080;21.992;2024-01-30T01:47:07;101043.77;;;-1.59;91.93
65872;BME280;52653;50.080;21.992;2024-01-30T01:49:40;101036.98;;;-1.57;91.86
65872;BME280;52653;50.080;21.992;2024-01-30T01:52:13;101041.90;;;-1.56;91.66
65872;BME280;52653;50.080;21.992;2024-01-30T01:54:46;101041.54;;;-1.56;91.35
65872;BME280;52653;50.080;21.992;2024-01-30T01:57:18;101042.05;;;-1.53;91.42
65872;BME280;52653;50.080;21.992;2024-01-30T01:59:51;101046.96;;;-1.53;91.48
65872;BME280;52653;50.080;21.992;2024-01-30T02:02:24;101045.20;;;-1.53;91.19
65872;BME280;52653;50.080;21.992;2024-01-30T02:04:58;101042.71;;;-1.54;91.02
65872;BME280;52653;50.080;21.992;2024-01-30T02:07:31;101039.42;;;-1.55;90.93
65872;BME280;52653;50.080;21.992;2024-01-30T02:10:04;101039.08;;;-1.54;90.89
65872;BME280;52653;50.080;21.992;2024-01-30T02:12:40;101038.56;;;-1.55;91.02
65872;BME280;52653;50.080;21.992;2024-01-30T02:15:14;101039.88;;;-1.55;90.89
65872;BME280;52653;50.080;21.992;2024-01-30T02:17:47;101037.92;;;-1.56;90.60
65872;BME280;52653;50.080;21.992;2024-01-30T02:20:20;101035.13;;;-1.57;90.59
65872;BME280;52653;50.080;21.992;2024-01-30T02:22:55;101032.74;;;-1.56;90.61
65872;BME280;52653;50.080;21.992;2024-01-30T02:25:38;101031.29;;;-1.58;90.51
65872;BME280;52653;50.080;21.992;2024-01-30T02:28:15;101031.21;;;-1.56;90.54
65872;BME280;52653;50.080;21.992;2024-01-30T02:30:48;101028.31;;;-1.56;90.46
65872;BME280;52653;50.080;21.992;2024-01-30T02:33:21;101027.58;;;-1.57;90.37
65872;BME280;52653;50.080;21.992;2024-01-30T02:35:53;101027.96;;;-1.56;90.36
65872;BME280;52653;50.080;21.992;2024-01-30T02:38:26;101027.34;;;-1.57;90.12
65872;BME280;52653;50.080;21.992;2024-01-30T02:40:59;101027.55;;;-1.59;90.04
65872;BME280;52653;50.080;21.992;2024-01-30T02:43:31;101028.98;;;-1.61;90.09
65872;BME280;52653;50.080;21.992;2024-01-30T02:46:05;101032.13;;;-1.63;89.95
65872;BME280;52653;50.080;21.992;2024-01-30T02:48:40;101034.55;;;-1.63;90.14
65872;BME280;52653;50.080;21.992;2024-01-30T02:51:13;101040.21;;;-1.65;90.06
65872;BME280;52653;50.080;21.992;2024-01-30T02:53:46;101043.14;;;-1.67;89.85
65872;BME280;52653;50.080;21.992;2024-01-30T02:56:19;101043.26;;;-1.66;90.22
65872;BME280;52653;50.080;21.992;2024-01-30T02:58:51;101048.73;;;-1.64;90.05
65872;BME280;52653;50.080;21.992;2024-01-30T03:01:28;101048.48;;;-1.65;89.83
65872;BME280;52653;50.080;21.992;2024-01-30T03:04:01;101046.71;;;-1.68;89.67
65872;BME280;52653;50.080;21.992;2024-01-30T03:06:33;101046.44;;;-1.72;89.47
65872;BME280;52653;50.080;21.992;2024-01-30T03:09:08;101042.39;;;-1.78;89.44
65872;BME280;52653;50.080;21.992;2024-01-30T03:11:41;101047.97;;;-1.85;89.04
65872;BME280;52653;50.080;21.992;2024-01-30T03:14:16;101048.41;;;-1.90;89.19
65872;BME280;52653;50.080;21.992;2024-01-30T03:16:49;101049.52;;;-1.94;89.45
65872;BME280;52653;50.080;21.992;2024-01-30T03:19:24;101049.94;;;-1.95;89.68
65872;BME280;52653;50.080;21.992;2024-01-30T03:21:56;101051.61;;;-1.96;89.66
65872;BME280;52653;50.080;21.992;2024-01-30T03:24:32;101046.56;;;-1.97;89.87
65872;BME280;52653;50.080;21.992;2024-01-30T03:27:05;101044.44;;;-1.98;89.85
65872;BME280;52653;50.080;21.992;2024-01-30T03:29:39;101040.63;;;-1.98;89.91
65872;BME280;52653;50.080;21.992;2024-01-30T03:32:13;101042.55;;;-1.98;89.80
65872;BME280;52653;50.080;21.992;2024-01-30T03:34:46;101041.01;;;-1.98;89.82
65872;BME280;52653;50.080;21.992;2024-01-30T03:37:21;101043.39;;;-1.98;89.96
65872;BME280;52653;50.080;21.992;2024-01-30T03:39:54;101038.84;;;-1.97;89.93
65872;BME280;52653;50.080;21.992;2024-01-30T03:42:27;101042.01;;;-1.96;90.13
65872;BME280;52653;50.080;21.992;2024-01-30T03:45:02;101040.06;;;-1.92;90.43
65872;BME280;52653;50.080;21.992;2024-01-30T03:47:35;101042.21;;;-1.88;90.36
65872;BME280;52653;50.080;21.992;2024-01-30T03:50:13;101040.87;;;-1.85;90.25
65872;BME280;52653;50.080;21.992;2024-01-30T03:52:46;101039.11;;;-1.84;90.34
65872;BME280;52653;50.080;21.992;2024-01-30T03:55:18;101035.08;;;-1.79;90.60
65872;BME280;52653;50.080;21.992;2024-01-30T03:57:50;101035.09;;;-1.77;90.38
65872;BME280;52653;50.080;21.992;2024-01-30T04:00:23;101032.84;;;-1.75;90.27
65872;BME280;52653;50.080;21.992;2024-01-30T04:02:56;101034.14;;;-1.71;90.72
65872;BME280;52653;50.080;21.992;2024-01-30T04:05:32;101032.66;;;-1.65;90.92
65872;BME280;52653;50.080;21.992;2024-01-30T04:08:05;101030.92;;;-1.55;91.20
65872;BME280;52653;50.080;21.992;2024-01-30T04:10:37;101031.83;;;-1.45;91.26
65872;BME280;52653;50.080;21.992;2024-01-30T04:13:10;101031.77;;;-1.36;91.29
65872;BME280;52653;50.080;21.992;2024-01-30T04:15:43;101028.67;;;-1.26;91.22
65872;BME280;52653;50.080;21.992;2024-01-30T04:18:15;101035.31;;;-1.14;91.11
65872;BME280;52653;50.080;21.992;2024-01-30T04:20:48;101032.45;;;-1.06;91.07
65872;BME280;52653;50.080;21.992;2024-01-30T04:23:21;101031.61;;;-0.98;90.80
65872;BME280;52653;50.080;21.992;2024-01-30T04:25:56;101026.08;;;-0.88;90.73
65872;BME280;52653;50.080;21.992;2024-01-30T04:28:29;101022.44;;;-0.78;90.53
65872;BME280;52653;50.080;21.992;2024-01-30T04:31:05;101019.89;;;-0.70;90.34
65872;BME280;52653;50.080;21.992;2024-01-30T04:33:38;101019.79;;;-0.64;89.87
65872;BME280;52653;50.080;21.992;2024-01-30T04:36:13;101014.95;;;-0.58;89.68
65872;BME280;52653;50.080;21.992;2024-01-30T04:38:45;101016.61;;;-0.54;89.56
65872;BME280;52653;50.080;21.992;2024-01-30T04:41:22;101021.70;;;-0.50;89.33
65872;BME280;52653;50.080;21.992;2024-01-30T04:43:55;101022.87;;;-0.45;89.18
65872;BME280;52653;50.080;21.992;2024-01-30T04:46:27;101022.48;;;-0.43;88.97
65872;BME280;52653;50.080;21.992;2024-01-30T04:49:00;101020.06;;;-0.43;88.69
65872;BME280;52653;50.080;21.992;2024-01-30T04:51:32;101016.33;;;-0.45;88.54
65872;BME280;52653;50.080;21.992;2024-01-30T04:54:05;101018.02;;;-0.46;88.44
65872;BME280;52653;50.080;21.992;2024-01-30T04:56:38;101015.83;;;-0.45;88.49
65872;BME280;52653;50.080;21.992;2024-01-30T04:59:11;101016.23;;;-0.44;88.34
65872;BME280;52653;50.080;21.992;2024-01-30T05:01:45;101017.90;;;-0.42;88.19
65872;BME280;52653;50.080;21.992;2024-01-30T05:04:20;101018.09;;;-0.42;88.16
65872;BME280;52653;50.080;21.992;2024-01-30T05:06:53;101023.01;;;-0.43;87.98
65872;BME280;52653;50.080;21.992;2024-01-30T05:09:25;101021.71;;;-0.45;87.86
65872;BME280;52653;50.080;21.992;2024-01-30T05:11:58;101021.27;;;-0.47;87.76
65872;BME280;52653;50.080;21.992;2024-01-30T05:14:30;101021.58;;;-0.47;87.67
65872;BME280;52653;50.080;21.992;2024-01-30T05:17:02;101019.73;;;-0.49;87.71
65872;BME280;52653;50.080;21.992;2024-01-30T05:19:35;101022.16;;;-0.49;87.50
65872;BME280;52653;50.080;21.992;2024-01-30T05:22:08;101022.43;;;-0.47;87.73
65872;BME280;52653;50.080;21.992;2024-01-30T05:24:41;101027.20;;;-0.45;87.60
65872;BME280;52653;50.080;21.992;2024-01-30T05:27:14;101028.14;;;-0.44;87.51
65872;BME280;52653;50.080;21.992;2024-01-30T05:29:46;101035.39;;;-0.44;87.24
65872;BME280;52653;50.080;21.992;2024-01-30T05:32:19;101036.18;;;-0.45;87.26
65872;BME280;52653;50.080;21.992;2024-01-30T05:34:52;101038.45;;;-0.47;87.19
65872;BME280;52653;50.080;21.992;2024-01-30T05:37:24;101041.08;;;-0.49;87.08
65872;BME280;52653;50.080;21.992;2024-01-30T05:39:57;101037.16;;;-0.51;87.01
65872;BME280;52653;50.080;21.992;2024-01-30T05:42:32;101037.23;;;-0.52;86.94
65872;BME280;52653;50.080;21.992;2024-01-30T05:45:06;101032.58;;;-0.52;86.98
65872;BME280;52653;50.080;21.992;2024-01-30T05:47:39;101036.14;;;-0.53;86.96
65872;BME280;52653;50.080;21.992;2024-01-30T05:50:12;101039.03;;;-0.53;86.78
65872;BME280;52653;50.080;21.992;2024-01-30T05:52:45;101038.50;;;-0.54;86.73
65872;BME280;52653;50.080;21.992;2024-01-30T05:55:17;101040.66;;;-0.55;86.59
65872;BME280;52653;50.080;21.992;2024-01-30T05:57:49;101037.54;;;-0.55;86.37
65872;BME280;52653;50.080;21.992;2024-01-30T06:00:26;101044.89;;;-0.54;86.44
65872;BME280;52653;50.080;21.992;2024-01-30T06:02:59;101043.84;;;-0.54;86.29
65872;BME280;52653;50.080;21.992;2024-01-30T06:05:31;101042.73;;;-0.55;86.13
65872;BME280;52653;50.080;21.992;2024-01-30T06:08:05;101044.11;;;-0.55;86.06
65872;BME280;52653;50.080;21.992;2024-01-30T06:10:38;101046.71;;;-0.55;86.08
65872;BME280;52653;50.080;21.992;2024-01-30T06:13:13;101047.38;;;-0.55;86.02
65872;BME280;52653;50.080;21.992;2024-01-30T06:15:45;101042.02;;;-0.55;85.93
65872;BME280;52653;50.080;21.992;2024-01-30T06:18:18;101039.73;;;-0.53;85.91
65872;BME280;52653;50.080;21.992;2024-01-30T06:20:51;101042.64;;;-0.51;85.78
65872;BME280;52653;50.080;21.992;2024-01-30T06:23:23;101039.63;;;-0.50;85.57
65872;BME280;52653;50.080;21.992;2024-01-30T06:25:56;101038.09;;;-0.47;85.49
65872;BME280;52653;50.080;21.992;2024-01-30T06:28:31;101036.08;;;-0.44;85.43
65872;BME280;52653;50.080;21.992;2024-01-30T06:31:06;101034.69;;;-0.39;85.34
65872;BME280;52653;50.080;21.992;2024-01-30T06:33:38;101038.67;;;-0.33;85.01
65872;BME280;52653;50.080;21.992;2024-01-30T06:36:14;101035.61;;;-0.27;84.92
65872;BME280;52653;50.080;21.992;2024-01-30T06:38:47;101036.88;;;-0.21;84.83
65872;BME280;52653;50.080;21.992;2024-01-30T06:41:19;101036.30;;;-0.17;84.56
65872;BME280;52653;50.080;21.992;2024-01-30T06:43:53;101030.49;;;-0.11;84.49
65872;BME280;52653;50.080;21.992;2024-01-30T06:46:26;101033.66;;;-0.04;84.06
65872;BME280;52653;50.080;21.992;2024-01-30T06:48:59;101031.73;;;0.04;83.56
65872;BME280;52653;50.080;21.992;2024-01-30T06:51:35;101029.15;;;0.12;83.42
65872;BME280;52653;50.080;21.992;2024-01-30T06:54:14;101022.67;;;0.21;83.01
65872;BME280;52653;50.080;21.992;2024-01-30T06:57:07;101020.54;;;0.31;82.70
65872;BME280;52653;50.080;21.992;2024-01-30T06:59:45;101015.20;;;0.40;82.35
65872;BME280;52653;50.080;21.992;2024-01-30T07:02:28;101020.67;;;0.50;81.77
65872;BME280;52653;50.080;21.992;2024-01-30T07:05:20;101021.71;;;0.61;81.41
65872;BME280;52653;50.080;21.992;2024-01-30T07:08:18;101019.76;;;0.72;81.19
65872;BME280;52653;50.080;21.992;2024-01-30T07:11:04;101023.77;;;0.81;80.57
65872;BME280;52653;50.080;21.992;2024-01-30T07:13:54;101018.67;;;0.91;79.96
65872;BME280;52653;50.080;21.992;2024-01-30T07:16:27;101016.64;;;1.00;79.72
65872;BME280;52653;50.080;21.992;2024-01-30T07:19:03;101016.45;;;1.09;79.54
65872;BME280;52653;50.080;21.992;2024-01-30T07:21:43;101015.98;;;1.19;79.10
65872;BME280;52653;50.080;21.992;2024-01-30T07:24:15;101018.71;;;1.27;78.78
65872;BME280;52653;50.080;21.992;2024-01-30T07:26:48;101017.95;;;1.35;78.17
65872;BME280;52653;50.080;21.992;2024-01-30T07:29:34;101014.34;;;1.43;77.72
65872;BME280;52653;50.080;21.992;2024-01-30T07:32:28;101018.04;;;1.54;77.22
65872;BME280;52653;50.080;21.992;2024-01-30T07:35:07;101018.50;;;1.62;76.78
65872;BME280;52653;50.080;21.992;2024-01-30T07:37:47;101017.77;;;1.70;76.35
65872;BME280;52653;50.080;21.992;2024-01-30T07:40:26;101018.83;;;1.80;76.32
65872;BME280;52653;50.080;21.992;2024-01-30T07:43:19;101020.16;;;1.88;75.24
65872;BME280;52653;50.080;21.992;2024-01-30T07:46:14;101020.36;;;1.98;74.94
65872;BME280;52653;50.080;21.992;2024-01-30T07:48:51;101017.74;;;2.07;74.81
65872;BME280;52653;50.080;21.992;2024-01-30T07:51:28;101018.23;;;2.16;74.33
65872;BME280;52653;50.080;21.992;2024-01-30T07:54:06;101015.39;;;2.24;74.37
65872;BME280;52653;50.080;21.992;2024-01-30T07:56:51;101011.48;;;2.31;73.64
65872;BME280;52653;50.080;21.992;2024-01-30T07:59:29;101015.14;;;2.38;72.93
65872;BME280;52653;50.080;21.992;2024-01-30T08:02:14;101015.94;;;2.47;72.29
65872;BME280;52653;50.080;21.992;2024-01-30T08:04:58;101012.99;;;2.53;70.96
65872;BME280;52653;50.080;21.992;2024-01-30T08:07:53;101007.17;;;2.60;70.99
65872;BME280;52653;50.080;21.992;2024-01-30T08:10:36;101005.64;;;2.67;70.36
65872;BME280;52653;50.080;21.992;2024-01-30T08:13:18;101007.73;;;2.74;69.33
65872;BME280;52653;50.080;21.992;2024-01-30T08:16:05;101004.28;;;2.81;68.81
65872;BME280;52653;50.080;21.992;2024-01-30T08:18:59;101008.90;;;2.87;68.45
65872;BME280;52653;50.080;21.992;2024-01-30T08:21:53;101010.75;;;2.92;67.88
65872;BME280;52653;50.080;21.992;2024-01-30T08:24:29;101009.73;;;3.00;68.21
65872;BME280;52653;50.080;21.992;2024-01-30T08:27:02;101012.80;;;3.09;68.75
65872;BME280;52653;50.080;21.992;2024-01-30T08:29:40;101015.80;;;3.16;67.94
65872;BME280;52653;50.080;21.992;2024-01-30T08:32:13;101015.12;;;3.23;67.80
65872;BME280;52653;50.080;21.992;2024-01-30T08:34:46;101008.54;;;3.30;67.15
65872;BME280;52653;50.080;21.992;2024-01-30T08:37:19;101008.16;;;3.37;65.96
65872;BME280;52653;50.080;21.992;2024-01-30T08:39:53;101010.91;;;3.43;66.55
65872;BME280;52653;50.080;21.992;2024-01-30T08:42:30;101010.17;;;3.49;66.49
65872;BME280;52653;50.080;21.992;2024-01-30T08:45:03;101009.64;;;3.56;65.88
65872;BME280;52653;50.080;21.992;2024-01-30T08:47:36;101014.22;;;3.61;65.00
65872;BME280;52653;50.080;21.992;2024-01-30T08:50:12;101016.63;;;3.64;64.59
65872;BME280;52653;50.080;21.992;2024-01-30T08:52:47;101018.28;;;3.69;64.11
65872;BME280;52653;50.080;21.992;2024-01-30T08:55:20;101016.71;;;3.73;63.57
65872;BME280;52653;50.080;21.992;2024-01-30T08:57:55;101019.85;;;3.77;64.01
65872;BME280;52653;50.080;21.992;2024-01-30T09:00:32;101023.58;;;3.81;63.36
65872;BME280;52653;50.080;21.992;2024-01-30T09:03:05;101021.17;;;3.86;63.35
65872;BME280;52653;50.080;21.992;2024-01-30T09:05:41;101019.72;;;3.92;63.67
65872;BME280;52653;50.080;21.992;2024-01-30T09:08:14;101011.91;;;3.99;63.55
65872;BME280;52653;50.080;21.992;2024-01-30T09:10:51;101013.30;;;4.03;62.72
65872;BME280;52653;50.080;21.992;2024-01-30T09:13:28;101017.14;;;4.07;62.13
65872;BME280;52653;50.080;21.992;2024-01-30T09:16:00;101016.84;;;4.11;62.08
65872;BME280;52653;50.080;21.992;2024-01-30T09:18:33;101009.54;;;4.19;62.21
65872;BME280;52653;50.080;21.992;2024-01-30T09:21:08;101010.88;;;4.25;62.24
65872;BME280;52653;50.080;21.992;2024-01-30T09:23:45;101006.17;;;4.32;62.49
65872;BME280;52653;50.080;21.992;2024-01-30T09:26:17;101006.50;;;4.39;62.02
65872;BME280;52653;50.080;21.992;2024-01-30T09:28:51;101003.73;;;4.47;62.37
65872;BME280;52653;50.080;21.992;2024-01-30T09:31:23;100997.02;;;4.52;61.28
65872;BME280;52653;50.080;21.992;2024-01-30T09:33:58;101000.05;;;4.58;61.10
65872;BME280;52653;50.080;21.992;2024-01-30T09:36:31;100997.54;;;4.64;60.85
65872;BME280;52653;50.080;21.992;2024-01-30T09:39:11;101000.11;;;4.70;60.94
65872;BME280;52653;50.080;21.992;2024-01-30T09:42:03;100998.10;;;4.76;60.75
65872;BME280;52653;50.080;21.992;2024-01-30T09:44:52;100999.91;;;4.82;60.07
65872;BME280;52653;50.080;21.992;2024-01-30T09:47:27;101003.80;;;4.87;59.85
65872;BME280;52653;50.080;21.992;2024-01-30T09:49:59;101003.04;;;4.94;59.87
65872;BME280;52653;50.080;21.992;2024-01-30T09:52:39;101002.29;;;5.00;59.37
65872;BME280;52653;50.080;21.992;2024-01-30T09:55:12;101002.30;;;5.09;59.77
65872;BME280;52653;50.080;21.992;2024-01-30T09:57:47;101001.73;;;5.16;59.56
65872;BME280;52653;50.080;21.992;2024-01-30T10:00:20;101000.90;;;5.21;58.73
65872;BME280;52653;50.080;21.992;2024-01-30T10:02:58;100996.44;;;5.26;58.47
65872;BME280;52653;50.080;21.992;2024-01-30T10:05:41;100992.95;;;5.34;58.64
65872;BME280;52653;50.080;21.992;2024-01-30T10:08:18;100993.62;;;5.42;58.16
65872;BME280;52653;50.080;21.992;2024-01-30T10:10:51;100988.04;;;5.50;58.57
65872;BME280;52653;50.080;21.992;2024-01-30T10:13:27;100981.53;;;5.57;58.23
65872;BME280;52653;50.080;21.992;2024-01-30T10:16:01;100983.14;;;5.62;57.16
65872;BME280;52653;50.080;21.992;2024-01-30T10:18:37;100981.45;;;5.68;57.44
65872;BME280;52653;50.080;21.992;2024-01-30T10:21:13;100982.15;;;5.76;57.64
65872;BME280;52653;50.080;21.992;2024-01-30T10:23:46;100984.65;;;5.82;56.65
65872;BME280;52653;50.080;21.992;2024-01-30T10:26:18;100982.86;;;5.89;56.48
65872;BME280;52653;50.080;21.992;2024-01-30T10:28:51;100978.99;;;5.93;56.20
65872;BME280;52653;50.080;21.992;2024-01-30T10:31:27;100972.69;;;5.96;56.18
65872;BME280;52653;50.080;21.992;2024-01-30T10:34:06;100972.45;;;6.03;56.77
65872;BME280;52653;50.080;21.992;2024-01-30T10:37:01;100969.52;;;6.13;57.00
65872;BME280;52653;50.080;21.992;2024-01-30T10:39:39;100962.54;;;6.22;56.33
65872;BME280;52653;50.080;21.992;2024-01-30T10:42:17;100961.34;;;6.27;55.36
65872;BME280;52653;50.080;21.992;2024-01-30T10:44:59;100958.21;;;6.32;55.36
65872;BME280;52653;50.080;21.992;2024-01-30T10:47:39;100954.25;;;6.37;54.63
65872;BME280;52653;50.080;21.992;2024-01-30T10:50:17;100956.06;;;6.39;54.57
65872;BME280;52653;50.080;21.992;2024-01-30T10:52:58;100954.70;;;6.45;54.97
65872;BME280;52653;50.080;21.992;2024-01-30T10:55:52;100949.58;;;6.48;54.01
65872;BME280;52653;50.080;21.992;2024-01-30T10:58:28;100947.34;;;6.48;53.69
65872;BME280;52653;50.080;21.992;2024-01-30T11:01:02;100944.30;;;6.51;54.12
65872;BME280;52653;50.080;21.992;2024-01-30T11:03:43;100941.29;;;6.55;54.24
65872;BME280;52653;50.080;21.992;2024-01-30T11:06:23;100938.19;;;6.56;53.40
65872;BME280;52653;50.080;21.992;2024-01-30T11:09:05;100931.93;;;6.57;53.14
65872;BME280;52653;50.080;21.992;2024-01-30T11:11:57;100923.09;;;6.58;53.33
65872;BME280;52653;50.080;21.992;2024-01-30T11:14:33;100920.90;;;6.60;53.79
65872;BME280;52653;50.080;21.992;2024-01-30T11:17:06;100919.10;;;6.63;53.62
65872;BME280;52653;50.080;21.992;2024-01-30T11:19:38;100928.28;;;6.66;53.51
65872;BME280;52653;50.080;21.992;2024-01-30T11:22:13;100925.45;;;6.70;53.75
65872;BME280;52653;50.080;21.992;2024-01-30T11:24:49;100920.65;;;6.77;54.42
65872;BME280;52653;50.080;21.992;2024-01-30T11:27:22;100917.17;;;6.83;54.00
65872;BME280;52653;50.080;21.992;2024-01-30T11:30:02;100912.02;;;6.85;53.56
65872;BME280;52653;50.080;21.992;2024-01-30T11:32:37;100911.84;;;6.90;54.01
65872;BME280;52653;50.080;21.992;2024-01-30T11:35:12;100909.08;;;6.96;54.47
65872;BME280;52653;50.080;21.992;2024-01-30T11:37:46;100909.13;;;7.02;54.41
65872;BME280;52653;50.080;21.992;2024-01-30T11:40:25;100906.02;;;7.09;54.37
65872;BME280;52653;50.080;21.992;2024-01-30T11:43:02;100904.09;;;7.13;53.84
65872;BME280;52653;50.080;21.992;2024-01-30T11:45:37;100901.02;;;7.15;53.78
65872;BME280;52653;50.080;21.992;2024-01-30T11:48:13;100894.29;;;7.18;53.67
65872;BME280;52653;50.080;21.992;2024-01-30T11:50:47;100892.97;;;7.20;53.49
65872;BME280;52653;50.080;21.992;2024-01-30T11:53:22;100894.42;;;7.22;53.55
65872;BME280;52653;50.080;21.992;2024-01-30T11:55:55;100892.88;;;7.22;53.46
65872;BME280;52653;50.080;21.992;2024-01-30T11:58:28;100893.77;;;7.23;53.62
65872;BME280;52653;50.080;21.992;2024-01-30T12:01:01;100894.50;;;7.24;53.79
65872;BME280;52653;50.080;21.992;2024-01-30T12:03:34;100896.23;;;7.24;53.35
65872;BME280;52653;50.080;21.992;2024-01-30T12:06:10;100897.33;;;7.25;54.00
65872;BME280;52653;50.080;21.992;2024-01-30T12:08:43;100901.65;;;7.29;54.45
65872;BME280;52653;50.080;21.992;2024-01-30T12:11:15;100899.83;;;7.32;54.18
65872;BME280;52653;50.080;21.992;2024-01-30T12:13:49;100897.15;;;7.36;54.24
65872;BME280;52653;50.080;21.992;2024-01-30T12:16:23;100893.31;;;7.36;53.48
65872;BME280;52653;50.080;21.992;2024-01-30T12:19:02;100890.14;;;7.35;53.43
65872;BME280;52653;50.080;21.992;2024-01-30T12:21:35;100888.41;;;7.30;52.10
65872;BME280;52653;50.080;21.992;2024-01-30T12:24:08;100887.02;;;7.24;51.81
65872;BME280;52653;50.080;21.992;2024-01-30T12:26:42;100885.98;;;7.19;51.73
65872;BME280;52653;50.080;21.992;2024-01-30T12:29:15;100884.19;;;7.13;51.50
65872;BME280;52653;50.080;21.992;2024-01-30T12:31:49;100884.34;;;7.07;51.65
65872;BME280;52653;50.080;21.992;2024-01-30T12:34:26;100886.04;;;7.00;51.55
65872;BME280;52653;50.080;21.992;2024-01-30T12:37:05;100887.59;;;6.95;52.29
65872;BME280;52653;50.080;21.992;2024-01-30T12:39:40;100884.29;;;6.95;52.51
65872;BME280;52653;50.080;21.992;2024-01-30T12:42:12;100878.88;;;6.95;52.64
65872;BME280;52653;50.080;21.992;2024-01-30T12:44:47;100878.91;;;6.96;53.14
65872;BME280;52653;50.080;21.992;2024-01-30T12:47:31;100875.71;;;6.99;53.47
65872;BME280;52653;50.080;21.992;2024-01-30T12:50:09;100875.86;;;7.03;53.80
65872;BME280;52653;50.080;21.992;2024-01-30T12:52:46;100872.48;;;7.06;53.39
65872;BME280;52653;50.080;21.992;2024-01-30T12:55:23;100872.29;;;7.06;52.67
65872;BME280;52653;50.080;21.992;2024-01-30T12:57:59;100871.34;;;7.04;52.44
65872;BME280;52653;50.080;21.992;2024-01-30T13:00:32;100868.11;;;7.01;52.45
65872;BME280;52653;50.080;21.992;2024-01-30T13:03:06;100862.31;;;7.00;52.64
65872;BME280;52653;50.080;21.992;2024-01-30T13:05:39;100858.36;;;6.97;52.43
65872;BME280;52653;50.080;21.992;2024-01-30T13:08:12;100850.19;;;6.92;52.09
65872;BME280;52653;50.080;21.992;2024-01-30T13:11:01;100853.87;;;6.88;52.56
65872;BME280;52653;50.080;21.992;2024-01-30T13:13:54;100855.28;;;6.88;53.07
65872;BME280;52653;50.080;21.992;2024-01-30T13:16:35;100852.67;;;6.88;53.08
65872;BME280;52653;50.080;21.992;2024-01-30T13:19:18;100849.41;;;6.90;53.50
65872;BME280;52653;50.080;21.992;2024-01-30T13:22:01;100851.64;;;6.89;52.98
65872;BME280;52653;50.080;21.992;2024-01-30T13:24:36;100847.98;;;6.88;53.34
65872;BME280;52653;50.080;21.992;2024-01-30T13:27:13;100852.11;;;6.87;52.92
65872;BME280;52653;50.080;21.992;2024-01-30T13:29:58;100846.20;;;6.83;52.96